首页
METAR-TAF:

METAR-TAF

机场 :

Moosonee, 安大略省, 加拿大

纬度: 51-16N, 经度: 080-39W, 海拔: 10米

当前天气观测

该预报发布于28分钟前的12:00 UTC
风速6节,风向北转东北,在东转东北之间变化
温度 5°C
湿度 81%
气压 1010 hPa
能見度: 14.5公里
阴天层高于5000英尺

METAR: CYMO 051200Z AUTO 02006KT 010V070 9SM OVC050 05/02 A2982 RMK SLP101

时间: 08:28 (12:28 UTC)

预报

该预报发布于48分钟前的11:40 UTC
预报有效从05日的 12点(UTC)到 05日的 24点(UTC)
风速6节,风向北转东北
能見度: 10公里
散云层高于2000英尺
阴天层高于5000英尺
短暂存在
从 05日的 12点(UTC)到 05日的 14点(UTC)
多云层高于2000英尺
阴天层高于5000英尺
几率 30%
从 05日的 12点(UTC)到 05日的 14点(UTC)
多云层高于800英尺
阴天层高于2000英尺
从 05日的 1400点(UTC)
风速8节,风向东北
能見度: 10公里
少量云层高于2000英尺
散云层高于6000英尺
从 05日的 2100点(UTC)
风速10节,风向东转东北
能見度: 10公里
多云层高于10000英尺

TAF: CYMO 051140Z 0512/0524 03006KT P6SM SCT020 OVC050 TEMPO 0512/0514 BKN020 OVC050 PROB30 0512/0514 BKN008 OVC020 FM051400 05008KT P6SM FEW020 SCT060 FM052100 06010KT P6SM BKN100 RMK FCST BASED ON AUTO OBS. NXT FCST BY 051800Z

超过4000个机场的气象观测和天气预报(METAR&TAF报告)。

可查询的气象台以黄色和红色小点在地图上表示。

将鼠标移到小点上方,可查看气象台名称。

然后点击查看天气观测和预报。

如需切换地图:点击带黑十字的绿色按钮放大地图;点击带横线的绿色按钮缩小地图;或者点击绿色箭头查看邻近地区的地图。


METAR-TAF: